sensor_id;sensor_type;location;lat;lon;timestamp;P1;durP1;ratioP1;P2;durP2;ratioP2
76063;SDS011;64762;52.006;8.424;2023-08-12T00:01:47;12.43;;;3.50;;
76063;SDS011;64762;52.006;8.424;2023-08-12T00:04:12;5.40;;;3.00;;
76063;SDS011;64762;52.006;8.424;2023-08-12T00:06:39;7.13;;;3.63;;
76063;SDS011;64762;52.006;8.424;2023-08-12T00:09:05;8.40;;;3.35;;
76063;SDS011;64762;52.006;8.424;2023-08-12T00:11:30;6.53;;;3.60;;
76063;SDS011;64762;52.006;8.424;2023-08-12T00:13:55;5.90;;;3.13;;
76063;SDS011;64762;52.006;8.424;2023-08-12T00:16:21;7.27;;;3.93;;
76063;SDS011;64762;52.006;8.424;2023-08-12T00:18:46;6.33;;;3.57;;
76063;SDS011;64762;52.006;8.424;2023-08-12T00:21:11;10.23;;;3.83;;
76063;SDS011;64762;52.006;8.424;2023-08-12T00:23:37;8.03;;;4.47;;
76063;SDS011;64762;52.006;8.424;2023-08-12T00:26:04;7.88;;;4.50;;
76063;SDS011;64762;52.006;8.424;2023-08-12T00:28:29;7.63;;;4.20;;
76063;SDS011;64762;52.006;8.424;2023-08-12T00:30:55;10.27;;;4.27;;
76063;SDS011;64762;52.006;8.424;2023-08-12T00:33:20;7.07;;;4.13;;
76063;SDS011;64762;52.006;8.424;2023-08-12T00:35:45;13.77;;;4.80;;
76063;SDS011;64762;52.006;8.424;2023-08-12T00:38:11;6.47;;;3.90;;
76063;SDS011;64762;52.006;8.424;2023-08-12T00:40:36;8.10;;;4.57;;
76063;SDS011;64762;52.006;8.424;2023-08-12T00:43:01;9.50;;;4.53;;
76063;SDS011;64762;52.006;8.424;2023-08-12T00:45:26;8.63;;;4.20;;
76063;SDS011;64762;52.006;8.424;2023-08-12T00:47:52;11.77;;;5.30;;
76063;SDS011;64762;52.006;8.424;2023-08-12T00:50:18;10.57;;;4.35;;
76063;SDS011;64762;52.006;8.424;2023-08-12T00:52:43;13.00;;;5.33;;
76063;SDS011;64762;52.006;8.424;2023-08-12T00:55:09;11.45;;;4.63;;
76063;SDS011;64762;52.006;8.424;2023-08-12T00:57:34;10.85;;;4.57;;
76063;SDS011;64762;52.006;8.424;2023-08-12T01:00:00;9.00;;;4.80;;
76063;SDS011;64762;52.006;8.424;2023-08-12T01:02:27;8.23;;;4.60;;
76063;SDS011;64762;52.006;8.424;2023-08-12T01:04:52;10.80;;;4.83;;
76063;SDS011;64762;52.006;8.424;2023-08-12T01:07:17;8.40;;;4.67;;
76063;SDS011;64762;52.006;8.424;2023-08-12T01:09:43;11.93;;;5.00;;
76063;SDS011;64762;52.006;8.424;2023-08-12T01:12:18;10.73;;;5.10;;
76063;SDS011;64762;52.006;8.424;2023-08-12T01:14:56;9.77;;;4.57;;
76063;SDS011;64762;52.006;8.424;2023-08-12T01:17:26;10.35;;;5.00;;
76063;SDS011;64762;52.006;8.424;2023-08-12T01:19:52;11.60;;;5.65;;
76063;SDS011;64762;52.006;8.424;2023-08-12T01:22:18;14.55;;;6.05;;
76063;SDS011;64762;52.006;8.424;2023-08-12T01:24:45;13.02;;;6.72;;
76063;SDS011;64762;52.006;8.424;2023-08-12T01:27:12;17.40;;;7.57;;
76063;SDS011;64762;52.006;8.424;2023-08-12T01:29:41;15.48;;;6.93;;
76063;SDS011;64762;52.006;8.424;2023-08-12T01:37:10;15.25;;;7.95;;
76063;SDS011;64762;52.006;8.424;2023-08-12T01:39:36;18.95;;;8.20;;
76063;SDS011;64762;52.006;8.424;2023-08-12T01:42:02;16.80;;;8.27;;
76063;SDS011;64762;52.006;8.424;2023-08-12T01:44:28;15.10;;;7.97;;
76063;SDS011;64762;52.006;8.424;2023-08-12T01:46:53;20.57;;;8.03;;
76063;SDS011;64762;52.006;8.424;2023-08-12T01:49:18;18.73;;;8.80;;
76063;SDS011;64762;52.006;8.424;2023-08-12T01:51:44;18.07;;;8.33;;
76063;SDS011;64762;52.006;8.424;2023-08-12T01:54:09;15.17;;;8.10;;
76063;SDS011;64762;52.006;8.424;2023-08-12T01:56:34;12.17;;;7.50;;
76063;SDS011;64762;52.006;8.424;2023-08-12T01:59:00;18.90;;;7.97;;
76063;SDS011;64762;52.006;8.424;2023-08-12T02:01:25;15.07;;;8.40;;
76063;SDS011;64762;52.006;8.424;2023-08-12T02:03:50;19.33;;;7.50;;
76063;SDS011;64762;52.006;8.424;2023-08-12T02:06:16;19.33;;;9.13;;
76063;SDS011;64762;52.006;8.424;2023-08-12T02:08:41;16.30;;;7.97;;
76063;SDS011;64762;52.006;8.424;2023-08-12T02:11:06;21.40;;;8.60;;
76063;SDS011;64762;52.006;8.424;2023-08-12T02:13:31;17.43;;;9.00;;
76063;SDS011;64762;52.006;8.424;2023-08-12T02:15:57;20.83;;;8.67;;
76063;SDS011;64762;52.006;8.424;2023-08-12T02:18:22;18.67;;;9.02;;
76063;SDS011;64762;52.006;8.424;2023-08-12T02:20:48;18.23;;;10.03;;
76063;SDS011;64762;52.006;8.424;2023-08-12T02:23:13;16.92;;;10.05;;
76063;SDS011;64762;52.006;8.424;2023-08-12T02:25:39;15.43;;;8.87;;
76063;SDS011;64762;52.006;8.424;2023-08-12T02:28:04;20.42;;;10.05;;
76063;SDS011;64762;52.006;8.424;2023-08-12T02:30:29;18.45;;;10.27;;
76063;SDS011;64762;52.006;8.424;2023-08-12T02:32:55;17.60;;;10.13;;
76063;SDS011;64762;52.006;8.424;2023-08-12T02:35:20;15.93;;;9.70;;
76063;SDS011;64762;52.006;8.424;2023-08-12T02:37:47;21.93;;;10.40;;
76063;SDS011;64762;52.006;8.424;2023-08-12T02:40:13;23.27;;;11.15;;
76063;SDS011;64762;52.006;8.424;2023-08-12T02:42:38;21.13;;;10.03;;
76063;SDS011;64762;52.006;8.424;2023-08-12T02:45:03;14.00;;;9.67;;
76063;SDS011;64762;52.006;8.424;2023-08-12T02:47:29;17.05;;;9.70;;
76063;SDS011;64762;52.006;8.424;2023-08-12T02:49:54;18.10;;;9.90;;
76063;SDS011;64762;52.006;8.424;2023-08-12T02:52:20;18.60;;;10.00;;
76063;SDS011;64762;52.006;8.424;2023-08-12T02:54:45;16.03;;;9.70;;
76063;SDS011;64762;52.006;8.424;2023-08-12T02:57:10;16.93;;;10.00;;
76063;SDS011;64762;52.006;8.424;2023-08-12T02:59:36;19.57;;;10.43;;
76063;SDS011;64762;52.006;8.424;2023-08-12T03:02:01;18.80;;;11.33;;
76063;SDS011;64762;52.006;8.424;2023-08-12T03:04:26;26.13;;;12.17;;
76063;SDS011;64762;52.006;8.424;2023-08-12T03:06:51;22.30;;;11.53;;
76063;SDS011;64762;52.006;8.424;2023-08-12T03:09:17;19.07;;;10.33;;
76063;SDS011;64762;52.006;8.424;2023-08-12T03:11:43;20.40;;;11.75;;
76063;SDS011;64762;52.006;8.424;2023-08-12T03:14:08;20.38;;;11.20;;
76063;SDS011;64762;52.006;8.424;2023-08-12T03:16:34;22.30;;;11.75;;
76063;SDS011;64762;52.006;8.424;2023-08-12T03:19:00;21.30;;;10.82;;
76063;SDS011;64762;52.006;8.424;2023-08-12T03:21:25;20.27;;;11.60;;
76063;SDS011;64762;52.006;8.424;2023-08-12T03:23:50;16.87;;;10.07;;
76063;SDS011;64762;52.006;8.424;2023-08-12T03:26:16;19.83;;;11.13;;
76063;SDS011;64762;52.006;8.424;2023-08-12T03:28:41;26.80;;;10.80;;
76063;SDS011;64762;52.006;8.424;2023-08-12T03:31:06;24.27;;;12.60;;
76063;SDS011;64762;52.006;8.424;2023-08-12T03:33:32;22.98;;;12.80;;
76063;SDS011;64762;52.006;8.424;2023-08-12T03:35:58;23.38;;;12.80;;
76063;SDS011;64762;52.006;8.424;2023-08-12T03:38:24;24.20;;;12.57;;
76063;SDS011;64762;52.006;8.424;2023-08-12T03:40:49;21.07;;;12.63;;
76063;SDS011;64762;52.006;8.424;2023-08-12T03:43:14;21.17;;;13.00;;
76063;SDS011;64762;52.006;8.424;2023-08-12T03:45:40;24.23;;;13.70;;
76063;SDS011;64762;52.006;8.424;2023-08-12T03:48:06;23.75;;;13.02;;
76063;SDS011;64762;52.006;8.424;2023-08-12T03:50:35;28.13;;;14.17;;
76063;SDS011;64762;52.006;8.424;2023-08-12T03:53:02;28.23;;;14.13;;
76063;SDS011;64762;52.006;8.424;2023-08-12T03:55:29;27.05;;;14.15;;
76063;SDS011;64762;52.006;8.424;2023-08-12T03:57:56;28.77;;;15.00;;
76063;SDS011;64762;52.006;8.424;2023-08-12T04:00:21;28.13;;;15.03;;
76063;SDS011;64762;52.006;8.424;2023-08-12T04:02:47;29.53;;;15.63;;
76063;SDS011;64762;52.006;8.424;2023-08-12T04:05:12;28.40;;;15.83;;
76063;SDS011;64762;52.006;8.424;2023-08-12T04:07:37;30.17;;;16.80;;
76063;SDS011;64762;52.006;8.424;2023-08-12T04:10:03;34.92;;;16.77;;
76063;SDS011;64762;52.006;8.424;2023-08-12T04:12:28;40.88;;;17.77;;
76063;SDS011;64762;52.006;8.424;2023-08-12T04:14:54;34.27;;;16.77;;
76063;SDS011;64762;52.006;8.424;2023-08-12T04:17:19;29.77;;;16.57;;
76063;SDS011;64762;52.006;8.424;2023-08-12T04:19:44;32.70;;;18.10;;
76063;SDS011;64762;52.006;8.424;2023-08-12T04:22:10;33.87;;;17.67;;
76063;SDS011;64762;52.006;8.424;2023-08-12T04:24:35;36.07;;;19.33;;
76063;SDS011;64762;52.006;8.424;2023-08-12T04:27:00;37.10;;;19.67;;
76063;SDS011;64762;52.006;8.424;2023-08-12T04:29:26;37.77;;;20.20;;
76063;SDS011;64762;52.006;8.424;2023-08-12T04:31:51;39.73;;;21.23;;
76063;SDS011;64762;52.006;8.424;2023-08-12T04:34:17;38.30;;;20.83;;
76063;SDS011;64762;52.006;8.424;2023-08-12T04:36:43;36.90;;;21.25;;
76063;SDS011;64762;52.006;8.424;2023-08-12T04:39:08;34.53;;;19.57;;
76063;SDS011;64762;52.006;8.424;2023-08-12T04:41:33;40.00;;;20.37;;
76063;SDS011;64762;52.006;8.424;2023-08-12T04:43:59;37.50;;;20.57;;
76063;SDS011;64762;52.006;8.424;2023-08-12T04:46:24;40.30;;;21.10;;
76063;SDS011;64762;52.006;8.424;2023-08-12T04:48:49;38.47;;;21.17;;
76063;SDS011;64762;52.006;8.424;2023-08-12T04:51:15;41.23;;;20.40;;
76063;SDS011;64762;52.006;8.424;2023-08-12T04:53:40;46.93;;;21.60;;
76063;SDS011;64762;52.006;8.424;2023-08-12T04:56:05;36.58;;;20.20;;
76063;SDS011;64762;52.006;8.424;2023-08-12T04:58:31;38.00;;;19.90;;
76063;SDS011;64762;52.006;8.424;2023-08-12T05:00:56;40.33;;;20.70;;
76063;SDS011;64762;52.006;8.424;2023-08-12T05:03:22;43.67;;;23.50;;
76063;SDS011;64762;52.006;8.424;2023-08-12T05:05:50;38.20;;;21.20;;
76063;SDS011;64762;52.006;8.424;2023-08-12T05:08:16;43.22;;;22.27;;
76063;SDS011;64762;52.006;8.424;2023-08-12T05:10:42;45.03;;;22.60;;
76063;SDS011;64762;52.006;8.424;2023-08-12T05:13:07;42.10;;;21.70;;
76063;SDS011;64762;52.006;8.424;2023-08-12T05:15:32;41.00;;;22.97;;
76063;SDS011;64762;52.006;8.424;2023-08-12T05:17:58;34.77;;;19.90;;
76063;SDS011;64762;52.006;8.424;2023-08-12T05:20:23;38.60;;;20.77;;
76063;SDS011;64762;52.006;8.424;2023-08-12T05:22:48;43.47;;;21.03;;
76063;SDS011;64762;52.006;8.424;2023-08-12T05:25:14;38.27;;;20.27;;
76063;SDS011;64762;52.006;8.424;2023-08-12T05:27:39;39.80;;;20.47;;
76063;SDS011;64762;52.006;8.424;2023-08-12T05:30:05;41.30;;;21.40;;
76063;SDS011;64762;52.006;8.424;2023-08-12T05:32:30;37.08;;;21.27;;
76063;SDS011;64762;52.006;8.424;2023-08-12T05:34:56;40.03;;;20.60;;
76063;SDS011;64762;52.006;8.424;2023-08-12T05:37:21;46.33;;;21.37;;
76063;SDS011;64762;52.006;8.424;2023-08-12T05:39:46;39.50;;;21.23;;
76063;SDS011;64762;52.006;8.424;2023-08-12T05:42:11;37.23;;;20.27;;
76063;SDS011;64762;52.006;8.424;2023-08-12T05:44:37;38.57;;;20.07;;
76063;SDS011;64762;52.006;8.424;2023-08-12T05:47:02;39.93;;;20.80;;
76063;SDS011;64762;52.006;8.424;2023-08-12T05:49:27;34.03;;;18.83;;
76063;SDS011;64762;52.006;8.424;2023-08-12T05:51:53;39.57;;;19.90;;
76063;SDS011;64762;52.006;8.424;2023-08-12T05:54:18;34.27;;;18.03;;
76063;SDS011;64762;52.006;8.424;2023-08-12T05:56:43;34.13;;;19.27;;
76063;SDS011;64762;52.006;8.424;2023-08-12T05:59:09;36.23;;;19.80;;
76063;SDS011;64762;52.006;8.424;2023-08-12T06:01:34;40.20;;;19.40;;
76063;SDS011;64762;52.006;8.424;2023-08-12T06:03:59;37.93;;;19.87;;
76063;SDS011;64762;52.006;8.424;2023-08-12T06:06:24;38.60;;;19.93;;
76063;SDS011;64762;52.006;8.424;2023-08-12T06:08:50;37.13;;;20.10;;
76063;SDS011;64762;52.006;8.424;2023-08-12T06:11:15;41.67;;;21.00;;
76063;SDS011;64762;52.006;8.424;2023-08-12T06:13:41;41.43;;;21.10;;
76063;SDS011;64762;52.006;8.424;2023-08-12T06:16:07;40.00;;;20.90;;
76063;SDS011;64762;52.006;8.424;2023-08-12T06:18:33;41.58;;;20.55;;
76063;SDS011;64762;52.006;8.424;2023-08-12T06:20:59;35.07;;;20.43;;
76063;SDS011;64762;52.006;8.424;2023-08-12T06:23:24;40.50;;;19.58;;
76063;SDS011;64762;52.006;8.424;2023-08-12T06:25:49;40.53;;;20.97;;
76063;SDS011;64762;52.006;8.424;2023-08-12T06:28:15;40.63;;;20.13;;
76063;SDS011;64762;52.006;8.424;2023-08-12T06:30:40;47.00;;;19.90;;
76063;SDS011;64762;52.006;8.424;2023-08-12T06:33:05;38.53;;;19.73;;
76063;SDS011;64762;52.006;8.424;2023-08-12T06:35:31;39.57;;;21.67;;
76063;SDS011;64762;52.006;8.424;2023-08-12T06:37:56;42.43;;;20.80;;
76063;SDS011;64762;52.006;8.424;2023-08-12T06:40:21;39.53;;;21.87;;
76063;SDS011;64762;52.006;8.424;2023-08-12T06:42:46;39.17;;;22.20;;
76063;SDS011;64762;52.006;8.424;2023-08-12T06:45:12;36.83;;;19.47;;
76063;SDS011;64762;52.006;8.424;2023-08-12T06:47:37;37.40;;;19.20;;
76063;SDS011;64762;52.006;8.424;2023-08-12T06:50:02;36.53;;;19.27;;
76063;SDS011;64762;52.006;8.424;2023-08-12T06:52:28;36.47;;;18.52;;
76063;SDS011;64762;52.006;8.424;2023-08-12T06:54:53;34.27;;;17.90;;
76063;SDS011;64762;52.006;8.424;2023-08-12T06:57:20;31.83;;;17.38;;
76063;SDS011;64762;52.006;8.424;2023-08-12T06:59:45;26.40;;;15.73;;
76063;SDS011;64762;52.006;8.424;2023-08-12T07:02:11;31.03;;;15.73;;
76063;SDS011;64762;52.006;8.424;2023-08-12T07:04:36;31.58;;;16.60;;
76063;SDS011;64762;52.006;8.424;2023-08-12T07:07:01;28.73;;;15.43;;
76063;SDS011;64762;52.006;8.424;2023-08-12T07:09:27;27.47;;;15.23;;
76063;SDS011;64762;52.006;8.424;2023-08-12T07:11:52;27.70;;;14.33;;
76063;SDS011;64762;52.006;8.424;2023-08-12T07:14:17;29.43;;;16.27;;
76063;SDS011;64762;52.006;8.424;2023-08-12T07:16:43;27.13;;;13.67;;
76063;SDS011;64762;52.006;8.424;2023-08-12T07:19:08;26.07;;;13.93;;
76063;SDS011;64762;52.006;8.424;2023-08-12T07:21:33;25.17;;;13.55;;
76063;SDS011;64762;52.006;8.424;2023-08-12T07:23:59;23.77;;;14.10;;
76063;SDS011;64762;52.006;8.424;2023-08-12T07:26:24;22.10;;;14.13;;
76063;SDS011;64762;52.006;8.424;2023-08-12T07:28:49;23.67;;;13.97;;
76063;SDS011;64762;52.006;8.424;2023-08-12T07:31:15;26.17;;;13.43;;
76063;SDS011;64762;52.006;8.424;2023-08-12T07:33:40;22.73;;;13.70;;
76063;SDS011;64762;52.006;8.424;2023-08-12T07:36:05;26.87;;;14.93;;
76063;SDS011;64762;52.006;8.424;2023-08-12T07:38:31;27.00;;;14.23;;
76063;SDS011;64762;52.006;8.424;2023-08-12T07:40:56;23.92;;;13.85;;
76063;SDS011;64762;52.006;8.424;2023-08-12T07:43:22;25.33;;;15.38;;
76063;SDS011;64762;52.006;8.424;2023-08-12T07:45:51;30.10;;;14.97;;
76063;SDS011;64762;52.006;8.424;2023-08-12T07:48:19;27.50;;;15.93;;
76063;SDS011;64762;52.006;8.424;2023-08-12T07:50:44;23.90;;;15.02;;
76063;SDS011;64762;52.006;8.424;2023-08-12T07:53:10;27.43;;;15.43;;
76063;SDS011;64762;52.006;8.424;2023-08-12T07:55:35;26.53;;;15.40;;
76063;SDS011;64762;52.006;8.424;2023-08-12T07:58:00;25.10;;;14.50;;
76063;SDS011;64762;52.006;8.424;2023-08-12T08:00:26;28.67;;;14.77;;
76063;SDS011;64762;52.006;8.424;2023-08-12T08:02:51;25.93;;;14.10;;
76063;SDS011;64762;52.006;8.424;2023-08-12T08:05:18;25.53;;;15.17;;
76063;SDS011;64762;52.006;8.424;2023-08-12T08:07:43;27.52;;;15.90;;
76063;SDS011;64762;52.006;8.424;2023-08-12T08:10:08;26.70;;;15.37;;
76063;SDS011;64762;52.006;8.424;2023-08-12T08:12:34;25.92;;;14.65;;
76063;SDS011;64762;52.006;8.424;2023-08-12T08:14:59;25.67;;;16.57;;
76063;SDS011;64762;52.006;8.424;2023-08-12T08:17:25;26.37;;;16.20;;
76063;SDS011;64762;52.006;8.424;2023-08-12T08:19:50;24.03;;;14.93;;
76063;SDS011;64762;52.006;8.424;2023-08-12T08:22:15;26.17;;;15.93;;
76063;SDS011;64762;52.006;8.424;2023-08-12T08:24:41;27.47;;;15.57;;
76063;SDS011;64762;52.006;8.424;2023-08-12T08:27:06;27.77;;;16.23;;
76063;SDS011;64762;52.006;8.424;2023-08-12T08:29:32;30.02;;;16.70;;
76063;SDS011;64762;52.006;8.424;2023-08-12T08:31:57;27.33;;;15.50;;
76063;SDS011;64762;52.006;8.424;2023-08-12T08:34:23;29.92;;;17.15;;
76063;SDS011;64762;52.006;8.424;2023-08-12T08:36:48;31.27;;;16.70;;
76063;SDS011;64762;52.006;8.424;2023-08-12T08:39:13;32.00;;;17.93;;
76063;SDS011;64762;52.006;8.424;2023-08-12T08:41:39;31.50;;;18.23;;
76063;SDS011;64762;52.006;8.424;2023-08-12T08:44:06;31.52;;;17.15;;
76063;SDS011;64762;52.006;8.424;2023-08-12T08:46:33;30.85;;;18.88;;
76063;SDS011;64762;52.006;8.424;2023-08-12T08:48:59;33.80;;;17.35;;
76063;SDS011;64762;52.006;8.424;2023-08-12T08:51:29;33.28;;;18.33;;
76063;SDS011;64762;52.006;8.424;2023-08-12T08:53:55;27.98;;;16.40;;
76063;SDS011;64762;52.006;8.424;2023-08-12T08:56:21;31.42;;;17.17;;
76063;SDS011;64762;52.006;8.424;2023-08-12T08:58:46;28.20;;;17.65;;
76063;SDS011;64762;52.006;8.424;2023-08-12T09:01:15;28.52;;;16.02;;
76063;SDS011;64762;52.006;8.424;2023-08-12T09:03:43;28.20;;;16.58;;
76063;SDS011;64762;52.006;8.424;2023-08-12T09:06:08;28.92;;;16.90;;
76063;SDS011;64762;52.006;8.424;2023-08-12T09:08:34;29.27;;;16.58;;
76063;SDS011;64762;52.006;8.424;2023-08-12T09:11:01;30.13;;;17.33;;
76063;SDS011;64762;52.006;8.424;2023-08-12T09:13:27;30.02;;;16.20;;
76063;SDS011;64762;52.006;8.424;2023-08-12T09:15:53;26.05;;;15.18;;
76063;SDS011;64762;52.006;8.424;2023-08-12T09:18:18;25.20;;;16.00;;
76063;SDS011;64762;52.006;8.424;2023-08-12T09:20:44;25.13;;;14.80;;
76063;SDS011;64762;52.006;8.424;2023-08-12T09:23:09;29.93;;;15.70;;
76063;SDS011;64762;52.006;8.424;2023-08-12T09:25:40;26.25;;;15.43;;
76063;SDS011;64762;52.006;8.424;2023-08-12T09:28:08;25.70;;;14.57;;
76063;SDS011;64762;52.006;8.424;2023-08-12T09:30:34;26.83;;;14.95;;
76063;SDS011;64762;52.006;8.424;2023-08-12T09:33:03;24.50;;;14.50;;
76063;SDS011;64762;52.006;8.424;2023-08-12T09:35:38;24.90;;;12.05;;
76063;SDS011;64762;52.006;8.424;2023-08-12T09:38:11;21.58;;;13.30;;
76063;SDS011;64762;52.006;8.424;2023-08-12T09:40:38;21.50;;;12.63;;
76063;SDS011;64762;52.006;8.424;2023-08-12T09:43:04;18.55;;;11.85;;
76063;SDS011;64762;52.006;8.424;2023-08-12T09:45:33;18.17;;;11.13;;
76063;SDS011;64762;52.006;8.424;2023-08-12T09:50:24;17.83;;;10.47;;
76063;SDS011;64762;52.006;8.424;2023-08-12T09:52:50;17.02;;;10.20;;
76063;SDS011;64762;52.006;8.424;2023-08-12T09:55:17;14.05;;;8.85;;
76063;SDS011;64762;52.006;8.424;2023-08-12T09:57:43;17.33;;;10.45;;
76063;SDS011;64762;52.006;8.424;2023-08-12T10:00:09;15.40;;;9.68;;
76063;SDS011;64762;52.006;8.424;2023-08-12T10:02:39;14.00;;;8.55;;
76063;SDS011;64762;52.006;8.424;2023-08-12T10:05:05;12.75;;;8.13;;
76063;SDS011;64762;52.006;8.424;2023-08-12T10:07:30;15.25;;;7.00;;
76063;SDS011;64762;52.006;8.424;2023-08-12T10:09:56;11.40;;;7.10;;
76063;SDS011;64762;52.006;8.424;2023-08-12T10:12:22;13.68;;;6.38;;
76063;SDS011;64762;52.006;8.424;2023-08-12T10:14:47;12.80;;;6.47;;
76063;SDS011;64762;52.006;8.424;2023-08-12T10:17:12;8.60;;;6.07;;
76063;SDS011;64762;52.006;8.424;2023-08-12T10:19:42;9.88;;;6.40;;
76063;SDS011;64762;52.006;8.424;2023-08-12T10:22:09;8.45;;;5.88;;
76063;SDS011;64762;52.006;8.424;2023-08-12T10:24:35;7.75;;;4.63;;
76063;SDS011;64762;52.006;8.424;2023-08-12T10:27:01;8.55;;;4.32;;
76063;SDS011;64762;52.006;8.424;2023-08-12T10:29:26;7.70;;;4.60;;
76063;SDS011;64762;52.006;8.424;2023-08-12T10:31:51;7.03;;;3.67;;
76063;SDS011;64762;52.006;8.424;2023-08-12T10:34:18;7.20;;;4.30;;
76063;SDS011;64762;52.006;8.424;2023-08-12T10:36:47;5.13;;;3.33;;
76063;SDS011;64762;52.006;8.424;2023-08-12T10:39:13;6.95;;;3.40;;
76063;SDS011;64762;52.006;8.424;2023-08-12T10:41:39;6.25;;;2.70;;
76063;SDS011;64762;52.006;8.424;2023-08-12T10:44:05;5.77;;;3.03;;
76063;SDS011;64762;52.006;8.424;2023-08-12T10:46:37;4.55;;;2.40;;
76063;SDS011;64762;52.006;8.424;2023-08-12T10:49:09;4.70;;;2.30;;
76063;SDS011;64762;52.006;8.424;2023-08-12T10:51:50;5.00;;;2.20;;
76063;SDS011;64762;52.006;8.424;2023-08-12T11:04:42;6.03;;;2.35;;
76063;SDS011;64762;52.006;8.424;2023-08-12T11:07:41;5.43;;;2.17;;
76063;SDS011;64762;52.006;8.424;2023-08-12T11:12:47;4.90;;;2.38;;
76063;SDS011;64762;52.006;8.424;2023-08-12T11:15:16;4.80;;;1.85;;
76063;SDS011;64762;52.006;8.424;2023-08-12T11:17:42;5.03;;;2.55;;
76063;SDS011;64762;52.006;8.424;2023-08-12T11:20:08;4.47;;;1.90;;
76063;SDS011;64762;52.006;8.424;2023-08-12T11:22:38;4.43;;;2.10;;
76063;SDS011;64762;52.006;8.424;2023-08-12T11:25:12;3.58;;;1.90;;
76063;SDS011;64762;52.006;8.424;2023-08-12T11:27:39;3.67;;;1.77;;
76063;SDS011;64762;52.006;8.424;2023-08-12T11:30:13;3.28;;;1.70;;
76063;SDS011;64762;52.006;8.424;2023-08-12T11:32:40;3.35;;;1.50;;
76063;SDS011;64762;52.006;8.424;2023-08-12T11:35:07;5.18;;;1.60;;
76063;SDS011;64762;52.006;8.424;2023-08-12T11:37:34;4.13;;;2.15;;
76063;SDS011;64762;52.006;8.424;2023-08-12T11:40:01;3.88;;;1.73;;
76063;SDS011;64762;52.006;8.424;2023-08-12T11:42:28;3.40;;;1.63;;
76063;SDS011;64762;52.006;8.424;2023-08-12T11:44:53;3.92;;;1.50;;
76063;SDS011;64762;52.006;8.424;2023-08-12T11:47:18;5.83;;;2.10;;
76063;SDS011;64762;52.006;8.424;2023-08-12T11:49:44;3.33;;;1.37;;
76063;SDS011;64762;52.006;8.424;2023-08-12T11:52:09;3.60;;;1.70;;
76063;SDS011;64762;52.006;8.424;2023-08-12T11:54:36;2.80;;;1.38;;
76063;SDS011;64762;52.006;8.424;2023-08-12T11:57:01;2.97;;;1.60;;
76063;SDS011;64762;52.006;8.424;2023-08-12T11:59:27;2.85;;;1.60;;
76063;SDS011;64762;52.006;8.424;2023-08-12T12:01:54;3.30;;;1.52;;
76063;SDS011;64762;52.006;8.424;2023-08-12T12:04:20;3.05;;;1.40;;
76063;SDS011;64762;52.006;8.424;2023-08-12T12:06:46;2.97;;;1.45;;
76063;SDS011;64762;52.006;8.424;2023-08-12T12:09:12;3.67;;;1.50;;
76063;SDS011;64762;52.006;8.424;2023-08-12T12:11:39;2.92;;;1.20;;
76063;SDS011;64762;52.006;8.424;2023-08-12T12:14:07;3.00;;;1.40;;
76063;SDS011;64762;52.006;8.424;2023-08-12T12:16:41;2.83;;;1.38;;
76063;SDS011;64762;52.006;8.424;2023-08-12T12:19:12;2.90;;;1.40;;
76063;SDS011;64762;52.006;8.424;2023-08-12T12:21:41;3.15;;;1.58;;
76063;SDS011;64762;52.006;8.424;2023-08-12T12:24:08;3.30;;;1.80;;
76063;SDS011;64762;52.006;8.424;2023-08-12T12:26:34;3.50;;;1.48;;
76063;SDS011;64762;52.006;8.424;2023-08-12T12:28:59;3.75;;;1.42;;
76063;SDS011;64762;52.006;8.424;2023-08-12T12:31:24;3.23;;;1.80;;
76063;SDS011;64762;52.006;8.424;2023-08-12T12:33:50;2.90;;;1.50;;
76063;SDS011;64762;52.006;8.424;2023-08-12T12:36:15;3.00;;;1.70;;
76063;SDS011;64762;52.006;8.424;2023-08-12T12:38:40;3.50;;;1.73;;
76063;SDS011;64762;52.006;8.424;2023-08-12T12:41:06;3.35;;;1.75;;
76063;SDS011;64762;52.006;8.424;2023-08-12T12:43:31;5.13;;;2.00;;
76063;SDS011;64762;52.006;8.424;2023-08-12T12:45:57;6.07;;;2.03;;
76063;SDS011;64762;52.006;8.424;2023-08-12T12:48:22;4.30;;;2.07;;
76063;SDS011;64762;52.006;8.424;2023-08-12T12:50:47;3.77;;;2.23;;
76063;SDS011;64762;52.006;8.424;2023-08-12T12:53:13;4.57;;;2.30;;
76063;SDS011;64762;52.006;8.424;2023-08-12T12:55:38;4.10;;;2.30;;
76063;SDS011;64762;52.006;8.424;2023-08-12T12:58:03;4.00;;;2.30;;
76063;SDS011;64762;52.006;8.424;2023-08-12T13:00:29;4.63;;;2.23;;
76063;SDS011;64762;52.006;8.424;2023-08-12T13:02:54;5.03;;;2.67;;
76063;SDS011;64762;52.006;8.424;2023-08-12T13:05:19;5.37;;;1.93;;
76063;SDS011;64762;52.006;8.424;2023-08-12T13:07:44;4.07;;;2.13;;
76063;SDS011;64762;52.006;8.424;2023-08-12T13:10:10;4.23;;;1.90;;
76063;SDS011;64762;52.006;8.424;2023-08-12T13:12:35;3.60;;;2.03;;
76063;SDS011;64762;52.006;8.424;2023-08-12T13:15:00;5.37;;;2.10;;
76063;SDS011;64762;52.006;8.424;2023-08-12T13:17:26;4.30;;;1.70;;
76063;SDS011;64762;52.006;8.424;2023-08-12T13:19:51;3.67;;;2.10;;
76063;SDS011;64762;52.006;8.424;2023-08-12T13:22:16;3.83;;;2.60;;
76063;SDS011;64762;52.006;8.424;2023-08-12T13:24:41;4.97;;;2.30;;
76063;SDS011;64762;52.006;8.424;2023-08-12T13:27:07;3.67;;;2.20;;
76063;SDS011;64762;52.006;8.424;2023-08-12T13:29:32;3.95;;;2.30;;
76063;SDS011;64762;52.006;8.424;2023-08-12T13:31:58;5.35;;;2.25;;
76063;SDS011;64762;52.006;8.424;2023-08-12T13:34:23;3.53;;;2.10;;
76063;SDS011;64762;52.006;8.424;2023-08-12T13:36:48;5.47;;;2.30;;
76063;SDS011;64762;52.006;8.424;2023-08-12T13:39:14;4.77;;;1.67;;
76063;SDS011;64762;52.006;8.424;2023-08-12T13:41:39;4.73;;;2.33;;
76063;SDS011;64762;52.006;8.424;2023-08-12T13:44:04;5.03;;;2.60;;
76063;SDS011;64762;52.006;8.424;2023-08-12T13:46:30;3.85;;;2.22;;
76063;SDS011;64762;52.006;8.424;2023-08-12T13:48:55;6.13;;;2.40;;
76063;SDS011;64762;52.006;8.424;2023-08-12T13:51:20;4.17;;;2.20;;
76063;SDS011;64762;52.006;8.424;2023-08-12T13:53:46;3.60;;;2.20;;
76063;SDS011;64762;52.006;8.424;2023-08-12T13:56:11;5.90;;;3.37;;
76063;SDS011;64762;52.006;8.424;2023-08-12T13:58:37;5.40;;;2.92;;
76063;SDS011;64762;52.006;8.424;2023-08-12T14:01:02;6.40;;;3.60;;
76063;SDS011;64762;52.006;8.424;2023-08-12T14:03:28;6.17;;;4.03;;
76063;SDS011;64762;52.006;8.424;2023-08-12T14:05:53;7.72;;;4.72;;
76063;SDS011;64762;52.006;8.424;2023-08-12T14:08:18;7.80;;;4.70;;
76063;SDS011;64762;52.006;8.424;2023-08-12T14:10:45;6.73;;;4.20;;
76063;SDS011;64762;52.006;8.424;2023-08-12T14:13:11;9.50;;;5.55;;
76063;SDS011;64762;52.006;8.424;2023-08-12T14:15:37;11.53;;;5.53;;
76063;SDS011;64762;52.006;8.424;2023-08-12T14:18:02;8.83;;;5.70;;
76063;SDS011;64762;52.006;8.424;2023-08-12T14:20:28;8.85;;;5.45;;
76063;SDS011;64762;52.006;8.424;2023-08-12T14:22:53;9.80;;;5.70;;
76063;SDS011;64762;52.006;8.424;2023-08-12T14:25:19;9.83;;;6.00;;
76063;SDS011;64762;52.006;8.424;2023-08-12T14:27:44;8.20;;;4.97;;
76063;SDS011;64762;52.006;8.424;2023-08-12T14:30:09;7.75;;;5.05;;
76063;SDS011;64762;52.006;8.424;2023-08-12T14:32:35;6.35;;;4.35;;
76063;SDS011;64762;52.006;8.424;2023-08-12T14:35:00;6.07;;;4.13;;
76063;SDS011;64762;52.006;8.424;2023-08-12T14:37:26;6.33;;;4.67;;
76063;SDS011;64762;52.006;8.424;2023-08-12T14:39:52;6.53;;;4.30;;
76063;SDS011;64762;52.006;8.424;2023-08-12T14:42:18;7.00;;;4.20;;
76063;SDS011;64762;52.006;8.424;2023-08-12T14:44:43;5.40;;;3.70;;
76063;SDS011;64762;52.006;8.424;2023-08-12T14:47:08;6.10;;;3.85;;